Pagrindinis puslapis
METAR-TAF:

METAR-TAF

Oro uostai :

Kašanas, Iranas

platuma: 33-59N, ilguma: 051-27E, Aukštis: 982 m

Dabartinis oras

Ataskaita buvo paskelbta 17 minutes, ne 10:00 UTC
Vėjas 6 kt iš Šiaurės Vakarų
Temperatūra 24°C
Drėgmė 31%
Slėgis 1026 hPa
Matomumas 10 km arba daugiau
Mažai debesys ne aukštis 3000 ft, Liūtiniai kamuoliniai debesys.
Išsisklaidę debesys ne aukštis 4000 ft
Su prošvaistėmis ne aukštis 10000 ft

METAR: OIFK 141000Z 32006KT 9999 FEW030CB SCT040 BKN100 24/06 Q1026 A3030

Laikas: 13:47 (10:17 UTC)


TAF: trūkstamas

Orai ataskaitas ir orų prognozės (METAR, TAF).

turimą stotys yra geltonos ir raudonos taškus žemėlapyje.

Perkelti pele per norėdami pamatyti stoties vardą.

Tada spustelėkite, norėdami matyti oro stebėjimo ir prognozės.

Norėdami pakeisti žemėlapį: spustelėkite ant žalios mygtukų su juodo kryžiaus žemyn,; žalią mygtuką su brūkšneliu, jei norite nutolinti; arba žalių rodyklių gretimoms žemėlapius.


METAR-TAF: